sensor_id;sensor_type;location;lat;lon;timestamp;pressure;altitude;pressure_sealevel;temperature;humidity
35577;BME280;21680;52.400;16.920;2023-08-17T00:01:45;101109.42;;;20.42;69.01
35577;BME280;21680;52.400;16.920;2023-08-17T00:04:11;101110.23;;;20.43;69.01
35577;BME280;21680;52.400;16.920;2023-08-17T00:06:36;101112.66;;;20.42;69.05
35577;BME280;21680;52.400;16.920;2023-08-17T00:09:01;101111.02;;;20.39;69.14
35577;BME280;21680;52.400;16.920;2023-08-17T00:11:26;101109.23;;;20.39;69.14
35577;BME280;21680;52.400;16.920;2023-08-17T00:13:52;101104.77;;;20.35;69.31
35577;BME280;21680;52.400;16.920;2023-08-17T00:16:17;101105.66;;;20.33;69.46
35577;BME280;21680;52.400;16.920;2023-08-17T00:18:42;101104.15;;;20.31;69.53
35577;BME280;21680;52.400;16.920;2023-08-17T00:21:08;101117.80;;;20.27;69.74
35577;BME280;21680;52.400;16.920;2023-08-17T00:23:33;101127.49;;;20.28;69.95
35577;BME280;21680;52.400;16.920;2023-08-17T00:25:59;101136.45;;;20.32;69.84
35577;BME280;21680;52.400;16.920;2023-08-17T00:28:24;101137.42;;;20.33;69.86
35577;BME280;21680;52.400;16.920;2023-08-17T00:30:50;101142.36;;;20.35;69.87
35577;BME280;21680;52.400;16.920;2023-08-17T00:33:16;101141.49;;;20.37;69.94
35577;BME280;21680;52.400;16.920;2023-08-17T00:35:41;101138.67;;;20.41;70.00
35577;BME280;21680;52.400;16.920;2023-08-17T00:38:06;101140.88;;;20.41;69.92
35577;BME280;21680;52.400;16.920;2023-08-17T00:40:31;101143.38;;;20.39;69.88
35577;BME280;21680;52.400;16.920;2023-08-17T00:42:56;101140.74;;;20.40;70.03
35577;BME280;21680;52.400;16.920;2023-08-17T00:45:23;101139.53;;;20.44;69.95
35577;BME280;21680;52.400;16.920;2023-08-17T00:47:49;101144.69;;;20.46;70.02
35577;BME280;21680;52.400;16.920;2023-08-17T00:50:14;101149.11;;;20.45;70.04
35577;BME280;21680;52.400;16.920;2023-08-17T00:52:41;101146.02;;;20.47;70.05
35577;BME280;21680;52.400;16.920;2023-08-17T00:55:08;101133.26;;;20.48;70.02
35577;BME280;21680;52.400;16.920;2023-08-17T00:57:35;101129.33;;;20.40;70.10
35577;BME280;21680;52.400;16.920;2023-08-17T01:00:00;101135.29;;;20.33;70.40
35577;BME280;21680;52.400;16.920;2023-08-17T01:02:26;101142.40;;;20.28;70.46
35577;BME280;21680;52.400;16.920;2023-08-17T01:04:51;101152.73;;;20.25;70.62
35577;BME280;21680;52.400;16.920;2023-08-17T01:07:17;101160.04;;;20.27;70.56
35577;BME280;21680;52.400;16.920;2023-08-17T01:09:42;101158.09;;;20.26;70.59
35577;BME280;21680;52.400;16.920;2023-08-17T01:12:17;101160.05;;;20.25;70.72
35577;BME280;21680;52.400;16.920;2023-08-17T01:14:57;101154.06;;;20.24;70.91
35577;BME280;21680;52.400;16.920;2023-08-17T01:17:29;101151.16;;;20.24;70.94
35577;BME280;21680;52.400;16.920;2023-08-17T01:19:57;101153.98;;;20.21;71.08
35577;BME280;21680;52.400;16.920;2023-08-17T01:22:24;101158.41;;;20.15;71.16
35577;BME280;21680;52.400;16.920;2023-08-17T01:24:54;101163.95;;;20.09;71.45
35577;BME280;21680;52.400;16.920;2023-08-17T01:27:23;101174.84;;;20.07;71.63
35577;BME280;21680;52.400;16.920;2023-08-17T01:29:48;101189.92;;;20.04;71.79
35577;BME280;21680;52.400;16.920;2023-08-17T01:32:40;101206.98;;;20.01;71.73
35577;BME280;21680;52.400;16.920;2023-08-17T01:35:27;101248.64;;;19.93;71.93
35577;BME280;21680;52.400;16.920;2023-08-17T01:37:55;101291.80;;;19.77;72.08
35577;BME280;21680;52.400;16.920;2023-08-17T01:40:24;101317.88;;;19.60;72.21
35577;BME280;21680;52.400;16.920;2023-08-17T01:42:52;101333.05;;;19.40;72.60
35577;BME280;21680;52.400;16.920;2023-08-17T01:45:18;101335.18;;;19.19;72.90
35577;BME280;21680;52.400;16.920;2023-08-17T01:47:43;101328.00;;;18.92;73.01
35577;BME280;21680;52.400;16.920;2023-08-17T01:50:09;101345.09;;;18.58;73.75
35577;BME280;21680;52.400;16.920;2023-08-17T01:52:34;101361.60;;;18.35;74.35
35577;BME280;21680;52.400;16.920;2023-08-17T01:55:00;101364.74;;;18.20;74.71
35577;BME280;21680;52.400;16.920;2023-08-17T01:57:25;101355.96;;;18.02;75.48
35577;BME280;21680;52.400;16.920;2023-08-17T01:59:51;101344.02;;;17.88;76.73
35577;BME280;21680;52.400;16.920;2023-08-17T02:02:16;101330.39;;;17.77;77.59
35577;BME280;21680;52.400;16.920;2023-08-17T02:04:42;101335.05;;;17.72;78.60
35577;BME280;21680;52.400;16.920;2023-08-17T02:07:07;101338.84;;;17.66;79.00
35577;BME280;21680;52.400;16.920;2023-08-17T02:09:33;101336.61;;;17.64;79.61
35577;BME280;21680;52.400;16.920;2023-08-17T02:11:58;101332.78;;;17.62;80.04
35577;BME280;21680;52.400;16.920;2023-08-17T02:14:23;101318.09;;;17.63;80.61
35577;BME280;21680;52.400;16.920;2023-08-17T02:16:48;101300.88;;;17.63;81.14
35577;BME280;21680;52.400;16.920;2023-08-17T02:19:14;101308.62;;;17.61;81.43
35577;BME280;21680;52.400;16.920;2023-08-17T02:21:39;101326.73;;;17.60;81.75
35577;BME280;21680;52.400;16.920;2023-08-17T02:24:05;101331.92;;;17.64;82.17
35577;BME280;21680;52.400;16.920;2023-08-17T02:26:30;101319.02;;;17.69;82.26
35577;BME280;21680;52.400;16.920;2023-08-17T02:28:55;101290.42;;;17.69;82.58
35577;BME280;21680;52.400;16.920;2023-08-17T02:31:21;101271.14;;;17.65;83.33
35577;BME280;21680;52.400;16.920;2023-08-17T02:33:46;101264.34;;;17.61;83.84
35577;BME280;21680;52.400;16.920;2023-08-17T02:36:11;101264.09;;;17.59;84.28
35577;BME280;21680;52.400;16.920;2023-08-17T02:38:36;101265.96;;;17.59;85.23
35577;BME280;21680;52.400;16.920;2023-08-17T02:41:01;101252.21;;;17.53;85.69
35577;BME280;21680;52.400;16.920;2023-08-17T02:43:27;101246.20;;;17.54;86.11
35577;BME280;21680;52.400;16.920;2023-08-17T02:45:52;101230.78;;;17.55;86.33
35577;BME280;21680;52.400;16.920;2023-08-17T02:48:18;101209.66;;;17.54;86.79
35577;BME280;21680;52.400;16.920;2023-08-17T02:50:43;101181.95;;;17.52;87.56
35577;BME280;21680;52.400;16.920;2023-08-17T02:53:09;101173.79;;;17.47;87.83
35577;BME280;21680;52.400;16.920;2023-08-17T02:55:34;101171.39;;;17.39;88.31
35577;BME280;21680;52.400;16.920;2023-08-17T02:57:59;101173.84;;;17.35;88.64
35577;BME280;21680;52.400;16.920;2023-08-17T03:00:24;101171.29;;;17.33;89.03
35577;BME280;21680;52.400;16.920;2023-08-17T03:02:50;101160.08;;;17.24;89.43
35577;BME280;21680;52.400;16.920;2023-08-17T03:05:15;101146.96;;;17.14;89.73
35577;BME280;21680;52.400;16.920;2023-08-17T03:07:40;101134.54;;;17.08;90.28
35577;BME280;21680;52.400;16.920;2023-08-17T03:10:06;101127.70;;;17.05;90.41
35577;BME280;21680;52.400;16.920;2023-08-17T03:12:31;101138.63;;;17.03;90.73
35577;BME280;21680;52.400;16.920;2023-08-17T03:14:56;101154.45;;;17.04;91.08
35577;BME280;21680;52.400;16.920;2023-08-17T03:17:21;101168.89;;;17.04;91.34
35577;BME280;21680;52.400;16.920;2023-08-17T03:19:47;101175.86;;;17.03;91.79
35577;BME280;21680;52.400;16.920;2023-08-17T03:22:12;101178.95;;;17.00;91.87
35577;BME280;21680;52.400;16.920;2023-08-17T03:24:37;101174.23;;;17.02;92.24
35577;BME280;21680;52.400;16.920;2023-08-17T03:27:03;101177.89;;;17.02;92.31
35577;BME280;21680;52.400;16.920;2023-08-17T03:29:28;101191.23;;;17.02;92.38
35577;BME280;21680;52.400;16.920;2023-08-17T03:31:53;101198.67;;;17.04;92.63
35577;BME280;21680;52.400;16.920;2023-08-17T03:34:19;101205.80;;;17.06;92.58
35577;BME280;21680;52.400;16.920;2023-08-17T03:36:44;101235.69;;;17.05;92.83
35577;BME280;21680;52.400;16.920;2023-08-17T03:39:09;101265.86;;;17.04;93.06
35577;BME280;21680;52.400;16.920;2023-08-17T03:41:35;101292.05;;;17.04;93.28
35577;BME280;21680;52.400;16.920;2023-08-17T03:44:03;101304.31;;;17.04;93.45
35577;BME280;21680;52.400;16.920;2023-08-17T03:46:28;101306.49;;;17.04;93.90
35577;BME280;21680;52.400;16.920;2023-08-17T03:48:54;101308.73;;;17.06;93.90
35577;BME280;21680;52.400;16.920;2023-08-17T03:51:19;101313.45;;;17.08;93.95
35577;BME280;21680;52.400;16.920;2023-08-17T03:53:44;101310.93;;;17.05;94.18
35577;BME280;21680;52.400;16.920;2023-08-17T03:56:09;101318.41;;;17.04;94.32
35577;BME280;21680;52.400;16.920;2023-08-17T03:58:35;101335.45;;;17.06;94.81
35577;BME280;21680;52.400;16.920;2023-08-17T04:01:00;101354.79;;;17.09;94.97
35577;BME280;21680;52.400;16.920;2023-08-17T04:03:26;101363.17;;;17.08;94.84
35577;BME280;21680;52.400;16.920;2023-08-17T04:05:52;101368.13;;;17.06;94.99
35577;BME280;21680;52.400;16.920;2023-08-17T04:08:17;101375.02;;;17.06;95.00
35577;BME280;21680;52.400;16.920;2023-08-17T04:10:42;101390.29;;;17.01;95.07
35577;BME280;21680;52.400;16.920;2023-08-17T04:13:07;101394.65;;;17.03;95.51
35577;BME280;21680;52.400;16.920;2023-08-17T04:15:33;101380.04;;;17.09;95.62
35577;BME280;21680;52.400;16.920;2023-08-17T04:17:58;101362.06;;;17.11;95.45
35577;BME280;21680;52.400;16.920;2023-08-17T04:20:23;101330.41;;;17.03;95.38
35577;BME280;21680;52.400;16.920;2023-08-17T04:22:51;101319.10;;;16.96;95.78
35577;BME280;21680;52.400;16.920;2023-08-17T04:25:16;101312.30;;;16.92;96.25
35577;BME280;21680;52.400;16.920;2023-08-17T04:27:41;101292.66;;;16.94;96.71
35577;BME280;21680;52.400;16.920;2023-08-17T04:30:07;101269.85;;;16.95;96.67
35577;BME280;21680;52.400;16.920;2023-08-17T04:32:33;101265.36;;;16.92;96.89
35577;BME280;21680;52.400;16.920;2023-08-17T04:34:58;101250.61;;;16.91;96.99
35577;BME280;21680;52.400;16.920;2023-08-17T04:37:23;101222.44;;;16.88;96.88
35577;BME280;21680;52.400;16.920;2023-08-17T04:39:49;101191.80;;;16.75;96.92
35577;BME280;21680;52.400;16.920;2023-08-17T04:42:14;101166.65;;;16.65;97.29
35577;BME280;21680;52.400;16.920;2023-08-17T04:44:40;101130.19;;;16.59;97.43
35577;BME280;21680;52.400;16.920;2023-08-17T04:47:06;101118.08;;;16.49;97.71
35577;BME280;21680;52.400;16.920;2023-08-17T04:49:31;101133.95;;;16.44;98.01
35577;BME280;21680;52.400;16.920;2023-08-17T04:51:56;101139.88;;;16.38;98.16
35577;BME280;21680;52.400;16.920;2023-08-17T04:54:22;101142.00;;;16.30;98.22
35577;BME280;21680;52.400;16.920;2023-08-17T04:56:47;101148.23;;;16.28;98.52
35577;BME280;21680;52.400;16.920;2023-08-17T04:59:13;101147.95;;;16.24;98.64
35577;BME280;21680;52.400;16.920;2023-08-17T05:01:38;101143.98;;;16.21;98.81
35577;BME280;21680;52.400;16.920;2023-08-17T05:04:04;101130.83;;;16.18;98.99
35577;BME280;21680;52.400;16.920;2023-08-17T05:06:29;101132.25;;;16.15;99.22
35577;BME280;21680;52.400;16.920;2023-08-17T05:08:55;101138.74;;;16.18;99.43
35577;BME280;21680;52.400;16.920;2023-08-17T05:11:21;101137.04;;;16.19;99.49
35577;BME280;21680;52.400;16.920;2023-08-17T05:13:46;101128.98;;;16.21;99.54
35577;BME280;21680;52.400;16.920;2023-08-17T05:16:11;101113.23;;;16.20;99.75
35577;BME280;21680;52.400;16.920;2023-08-17T05:18:36;101110.80;;;16.21;100.00
35577;BME280;21680;52.400;16.920;2023-08-17T05:21:02;101109.05;;;16.20;100.00
35577;BME280;21680;52.400;16.920;2023-08-17T05:23:27;101112.58;;;16.21;100.00
35577;BME280;21680;52.400;16.920;2023-08-17T05:25:52;101112.38;;;16.19;100.00
35577;BME280;21680;52.400;16.920;2023-08-17T05:28:17;101122.59;;;16.14;100.00
35577;BME280;21680;52.400;16.920;2023-08-17T05:30:43;101125.29;;;16.11;100.00
35577;BME280;21680;52.400;16.920;2023-08-17T05:33:09;101130.79;;;16.09;100.00
35577;BME280;21680;52.400;16.920;2023-08-17T05:35:34;101129.05;;;16.08;100.00
35577;BME280;21680;52.400;16.920;2023-08-17T05:37:59;101140.17;;;16.09;100.00
35577;BME280;21680;52.400;16.920;2023-08-17T05:40:25;101141.23;;;16.10;100.00
35577;BME280;21680;52.400;16.920;2023-08-17T05:42:50;101149.79;;;16.08;100.00
35577;BME280;21680;52.400;16.920;2023-08-17T05:45:16;101156.40;;;16.12;100.00
35577;BME280;21680;52.400;16.920;2023-08-17T05:47:41;101156.55;;;16.13;100.00
35577;BME280;21680;52.400;16.920;2023-08-17T05:50:07;101145.86;;;16.13;100.00
35577;BME280;21680;52.400;16.920;2023-08-17T05:52:32;101136.78;;;16.14;100.00
35577;BME280;21680;52.400;16.920;2023-08-17T05:54:57;101141.76;;;16.16;100.00
35577;BME280;21680;52.400;16.920;2023-08-17T05:57:23;101148.39;;;16.19;100.00
35577;BME280;21680;52.400;16.920;2023-08-17T05:59:48;101155.52;;;16.21;100.00
35577;BME280;21680;52.400;16.920;2023-08-17T06:02:13;101160.88;;;16.19;100.00
35577;BME280;21680;52.400;16.920;2023-08-17T06:04:39;101161.80;;;16.15;100.00
35577;BME280;21680;52.400;16.920;2023-08-17T06:07:04;101155.64;;;16.13;100.00
35577;BME280;21680;52.400;16.920;2023-08-17T06:09:29;101158.13;;;16.10;100.00
35577;BME280;21680;52.400;16.920;2023-08-17T06:11:54;101149.16;;;16.06;100.00
35577;BME280;21680;52.400;16.920;2023-08-17T06:14:20;101145.96;;;16.09;100.00
35577;BME280;21680;52.400;16.920;2023-08-17T06:16:45;101134.40;;;16.12;100.00
35577;BME280;21680;52.400;16.920;2023-08-17T06:19:10;101121.00;;;16.16;100.00
35577;BME280;21680;52.400;16.920;2023-08-17T06:21:36;101119.95;;;16.16;100.00
35577;BME280;21680;52.400;16.920;2023-08-17T06:24:01;101131.24;;;16.11;100.00
35577;BME280;21680;52.400;16.920;2023-08-17T06:26:26;101153.80;;;16.07;100.00
35577;BME280;21680;52.400;16.920;2023-08-17T06:28:51;101158.30;;;16.07;100.00
35577;BME280;21680;52.400;16.920;2023-08-17T06:31:17;101157.60;;;16.07;100.00
35577;BME280;21680;52.400;16.920;2023-08-17T06:33:42;101151.91;;;16.08;100.00
35577;BME280;21680;52.400;16.920;2023-08-17T06:36:07;101143.54;;;16.10;100.00
35577;BME280;21680;52.400;16.920;2023-08-17T06:38:32;101138.11;;;16.10;100.00
35577;BME280;21680;52.400;16.920;2023-08-17T06:40:58;101135.80;;;16.07;100.00
35577;BME280;21680;52.400;16.920;2023-08-17T06:43:23;101132.85;;;16.08;100.00
35577;BME280;21680;52.400;16.920;2023-08-17T06:45:48;101143.76;;;16.10;100.00
35577;BME280;21680;52.400;16.920;2023-08-17T06:48:14;101107.13;;;16.10;100.00
35577;BME280;21680;52.400;16.920;2023-08-17T06:50:39;101110.91;;;16.01;100.00
35577;BME280;21680;52.400;16.920;2023-08-17T06:53:04;101118.63;;;15.95;100.00
35577;BME280;21680;52.400;16.920;2023-08-17T06:55:30;101128.45;;;15.97;100.00
35577;BME280;21680;52.400;16.920;2023-08-17T06:57:55;101133.77;;;16.01;100.00
35577;BME280;21680;52.400;16.920;2023-08-17T07:00:21;101146.25;;;16.04;100.00
35577;BME280;21680;52.400;16.920;2023-08-17T07:02:50;101151.97;;;16.08;100.00
35577;BME280;21680;52.400;16.920;2023-08-17T07:05:15;101154.18;;;16.10;100.00
35577;BME280;21680;52.400;16.920;2023-08-17T07:07:41;101156.64;;;16.14;100.00
35577;BME280;21680;52.400;16.920;2023-08-17T07:10:10;101159.65;;;16.18;100.00
35577;BME280;21680;52.400;16.920;2023-08-17T07:12:39;101169.51;;;16.25;100.00
35577;BME280;21680;52.400;16.920;2023-08-17T07:15:05;101174.08;;;16.36;100.00
35577;BME280;21680;52.400;16.920;2023-08-17T07:17:31;101178.39;;;16.43;100.00
35577;BME280;21680;52.400;16.920;2023-08-17T07:19:57;101178.35;;;16.43;100.00
35577;BME280;21680;52.400;16.920;2023-08-17T07:22:22;101178.65;;;16.50;100.00
35577;BME280;21680;52.400;16.920;2023-08-17T07:24:47;101183.54;;;16.56;100.00
35577;BME280;21680;52.400;16.920;2023-08-17T07:27:12;101181.61;;;16.58;100.00
35577;BME280;21680;52.400;16.920;2023-08-17T07:29:37;101189.18;;;16.55;100.00
35577;BME280;21680;52.400;16.920;2023-08-17T07:32:03;101193.55;;;16.58;100.00
35577;BME280;21680;52.400;16.920;2023-08-17T07:34:28;101194.38;;;16.62;100.00
35577;BME280;21680;52.400;16.920;2023-08-17T07:36:57;101197.71;;;16.67;100.00
35577;BME280;21680;52.400;16.920;2023-08-17T07:39:22;101195.77;;;16.78;100.00
35577;BME280;21680;52.400;16.920;2023-08-17T07:41:47;101199.17;;;16.91;100.00
35577;BME280;21680;52.400;16.920;2023-08-17T07:44:13;101195.98;;;16.99;100.00
35577;BME280;21680;52.400;16.920;2023-08-17T07:46:38;101191.48;;;17.10;100.00
35577;BME280;21680;52.400;16.920;2023-08-17T07:49:03;101198.31;;;17.16;100.00
35577;BME280;21680;52.400;16.920;2023-08-17T07:51:29;101203.42;;;17.21;100.00
35577;BME280;21680;52.400;16.920;2023-08-17T07:53:56;101204.89;;;17.18;100.00
35577;BME280;21680;52.400;16.920;2023-08-17T07:56:22;101201.98;;;17.21;100.00
35577;BME280;21680;52.400;16.920;2023-08-17T07:58:47;101196.55;;;17.30;100.00
35577;BME280;21680;52.400;16.920;2023-08-17T08:01:12;101195.66;;;17.36;100.00
35577;BME280;21680;52.400;16.920;2023-08-17T08:03:37;101192.42;;;17.44;100.00
35577;BME280;21680;52.400;16.920;2023-08-17T08:06:03;101199.61;;;17.56;100.00
35577;BME280;21680;52.400;16.920;2023-08-17T08:08:28;101199.01;;;17.69;100.00
35577;BME280;21680;52.400;16.920;2023-08-17T08:10:53;101202.72;;;17.78;100.00
35577;BME280;21680;52.400;16.920;2023-08-17T08:13:19;101207.71;;;17.93;100.00
35577;BME280;21680;52.400;16.920;2023-08-17T08:15:45;101216.84;;;18.03;100.00
35577;BME280;21680;52.400;16.920;2023-08-17T08:18:10;101217.46;;;18.10;100.00
35577;BME280;21680;52.400;16.920;2023-08-17T08:20:35;101217.84;;;18.07;100.00
35577;BME280;21680;52.400;16.920;2023-08-17T08:23:00;101207.62;;;18.11;100.00
35577;BME280;21680;52.400;16.920;2023-08-17T08:25:26;101201.02;;;18.21;100.00
35577;BME280;21680;52.400;16.920;2023-08-17T08:27:51;101207.86;;;18.29;100.00
35577;BME280;21680;52.400;16.920;2023-08-17T08:30:16;101208.43;;;18.31;100.00
35577;BME280;21680;52.400;16.920;2023-08-17T08:32:43;101215.64;;;18.34;100.00
35577;BME280;21680;52.400;16.920;2023-08-17T08:35:08;101215.50;;;18.36;100.00
35577;BME280;21680;52.400;16.920;2023-08-17T08:37:33;101216.22;;;18.39;100.00
35577;BME280;21680;52.400;16.920;2023-08-17T08:39:59;101214.25;;;18.47;100.00
35577;BME280;21680;52.400;16.920;2023-08-17T08:42:24;101211.84;;;18.53;100.00
35577;BME280;21680;52.400;16.920;2023-08-17T08:44:50;101214.08;;;18.55;100.00
35577;BME280;21680;52.400;16.920;2023-08-17T08:47:19;101216.83;;;18.57;100.00
35577;BME280;21680;52.400;16.920;2023-08-17T08:50:05;101224.94;;;18.58;100.00
35577;BME280;21680;52.400;16.920;2023-08-17T08:52:35;101226.04;;;18.57;100.00
35577;BME280;21680;52.400;16.920;2023-08-17T08:55:14;101226.81;;;18.56;100.00
35577;BME280;21680;52.400;16.920;2023-08-17T08:57:41;101229.44;;;18.49;100.00
35577;BME280;21680;52.400;16.920;2023-08-17T09:00:08;101227.45;;;18.52;100.00
35577;BME280;21680;52.400;16.920;2023-08-17T09:02:34;101225.77;;;18.59;100.00
35577;BME280;21680;52.400;16.920;2023-08-17T09:05:01;101227.05;;;18.70;100.00
35577;BME280;21680;52.400;16.920;2023-08-17T09:07:29;101224.55;;;18.82;100.00
35577;BME280;21680;52.400;16.920;2023-08-17T09:09:55;101219.28;;;18.93;100.00
35577;BME280;21680;52.400;16.920;2023-08-17T09:12:21;101221.35;;;19.02;100.00
35577;BME280;21680;52.400;16.920;2023-08-17T09:14:47;101222.50;;;19.09;100.00
35577;BME280;21680;52.400;16.920;2023-08-17T09:17:12;101226.24;;;19.18;100.00
35577;BME280;21680;52.400;16.920;2023-08-17T09:19:37;101217.58;;;19.20;100.00
35577;BME280;21680;52.400;16.920;2023-08-17T09:22:03;101213.52;;;19.19;100.00
35577;BME280;21680;52.400;16.920;2023-08-17T09:24:35;101208.55;;;19.17;100.00
35577;BME280;21680;52.400;16.920;2023-08-17T09:27:02;101208.70;;;19.14;100.00
35577;BME280;21680;52.400;16.920;2023-08-17T09:29:28;101210.13;;;19.20;100.00
35577;BME280;21680;52.400;16.920;2023-08-17T09:31:58;101216.23;;;19.34;100.00
35577;BME280;21680;52.400;16.920;2023-08-17T09:34:31;101220.42;;;19.38;100.00
35577;BME280;21680;52.400;16.920;2023-08-17T09:36:56;101220.48;;;19.35;100.00
35577;BME280;21680;52.400;16.920;2023-08-17T09:39:26;101221.13;;;19.36;100.00
35577;BME280;21680;52.400;16.920;2023-08-17T09:41:54;101222.15;;;19.32;100.00
35577;BME280;21680;52.400;16.920;2023-08-17T09:44:20;101225.81;;;19.29;100.00
35577;BME280;21680;52.400;16.920;2023-08-17T09:46:46;101226.48;;;19.45;100.00
35577;BME280;21680;52.400;16.920;2023-08-17T09:49:11;101221.89;;;19.61;100.00
35577;BME280;21680;52.400;16.920;2023-08-17T09:51:36;101224.92;;;19.74;100.00
35577;BME280;21680;52.400;16.920;2023-08-17T09:54:02;101222.73;;;19.69;100.00
35577;BME280;21680;52.400;16.920;2023-08-17T09:56:28;101223.40;;;19.70;100.00
35577;BME280;21680;52.400;16.920;2023-08-17T09:58:54;101214.88;;;19.70;100.00
35577;BME280;21680;52.400;16.920;2023-08-17T10:01:21;101211.42;;;19.65;100.00
35577;BME280;21680;52.400;16.920;2023-08-17T10:03:48;101210.56;;;19.72;100.00
35577;BME280;21680;52.400;16.920;2023-08-17T10:06:22;101207.54;;;19.84;100.00
35577;BME280;21680;52.400;16.920;2023-08-17T10:08:53;101203.00;;;20.01;100.00
35577;BME280;21680;52.400;16.920;2023-08-17T10:11:21;101201.08;;;20.15;100.00
35577;BME280;21680;52.400;16.920;2023-08-17T10:14:18;101197.45;;;20.17;100.00
35577;BME280;21680;52.400;16.920;2023-08-17T10:16:45;101199.17;;;20.26;100.00
35577;BME280;21680;52.400;16.920;2023-08-17T10:19:37;101199.48;;;20.38;100.00
35577;BME280;21680;52.400;16.920;2023-08-17T10:22:11;101202.34;;;20.54;100.00
35577;BME280;21680;52.400;16.920;2023-08-17T10:24:40;101198.56;;;20.63;100.00
35577;BME280;21680;52.400;16.920;2023-08-17T10:27:06;101193.88;;;20.74;100.00
35577;BME280;21680;52.400;16.920;2023-08-17T10:29:33;101194.38;;;20.93;100.00
35577;BME280;21680;52.400;16.920;2023-08-17T10:32:00;101189.04;;;21.10;100.00
35577;BME280;21680;52.400;16.920;2023-08-17T10:34:26;101189.36;;;21.26;99.98
35577;BME280;21680;52.400;16.920;2023-08-17T10:36:53;101185.50;;;21.38;99.74
35577;BME280;21680;52.400;16.920;2023-08-17T10:39:27;101179.75;;;21.51;99.72
35577;BME280;21680;52.400;16.920;2023-08-17T10:41:53;101180.73;;;21.57;99.05
35577;BME280;21680;52.400;16.920;2023-08-17T10:44:44;101181.94;;;21.60;98.79
35577;BME280;21680;52.400;16.920;2023-08-17T10:47:29;101179.84;;;21.81;99.78
35577;BME280;21680;52.400;16.920;2023-08-17T10:49:57;101175.90;;;22.07;99.65
35577;BME280;21680;52.400;16.920;2023-08-17T10:52:28;101168.59;;;22.23;98.99
35577;BME280;21680;52.400;16.920;2023-08-17T10:54:53;101170.24;;;22.42;98.97
35577;BME280;21680;52.400;16.920;2023-08-17T10:57:44;101172.48;;;22.54;98.23
35577;BME280;21680;52.400;16.920;2023-08-17T11:00:23;101168.39;;;22.55;97.01
35577;BME280;21680;52.400;16.920;2023-08-17T11:02:57;101167.50;;;22.57;96.86
35577;BME280;21680;52.400;16.920;2023-08-17T11:08:02;101162.23;;;22.61;95.81
35577;BME280;21680;52.400;16.920;2023-08-17T11:10:28;101157.91;;;22.58;94.92
35577;BME280;21680;52.400;16.920;2023-08-17T11:12:54;101158.95;;;22.48;93.89
35577;BME280;21680;52.400;16.920;2023-08-17T11:15:35;101156.30;;;22.47;93.59
35577;BME280;21680;52.400;16.920;2023-08-17T11:18:08;101153.02;;;22.60;93.58
35577;BME280;21680;52.400;16.920;2023-08-17T11:20:34;101152.51;;;22.79;93.75
35577;BME280;21680;52.400;16.920;2023-08-17T11:23:01;101148.95;;;22.93;93.05
35577;BME280;21680;52.400;16.920;2023-08-17T11:25:26;101143.34;;;23.03;92.60
35577;BME280;21680;52.400;16.920;2023-08-17T11:27:53;101142.96;;;23.13;92.44
35577;BME280;21680;52.400;16.920;2023-08-17T11:30:20;101146.20;;;23.09;91.11
35577;BME280;21680;52.400;16.920;2023-08-17T11:32:46;101146.29;;;23.15;91.51
35577;BME280;21680;52.400;16.920;2023-08-17T11:35:11;101140.87;;;23.30;91.11
35577;BME280;21680;52.400;16.920;2023-08-17T11:37:36;101140.70;;;23.30;89.86
35577;BME280;21680;52.400;16.920;2023-08-17T11:40:02;101136.73;;;23.19;88.65
35577;BME280;21680;52.400;16.920;2023-08-17T11:42:27;101138.39;;;23.17;88.34
35577;BME280;21680;52.400;16.920;2023-08-17T11:44:53;101138.08;;;23.21;87.61
35577;BME280;21680;52.400;16.920;2023-08-17T11:47:18;101134.64;;;23.22;87.30
35577;BME280;21680;52.400;16.920;2023-08-17T11:49:47;101136.62;;;23.35;87.65
35577;BME280;21680;52.400;16.920;2023-08-17T11:52:13;101135.58;;;23.52;87.42
35577;BME280;21680;52.400;16.920;2023-08-17T11:54:41;101134.98;;;23.63;86.54
35577;BME280;21680;52.400;16.920;2023-08-17T11:57:07;101133.97;;;23.66;85.64
35577;BME280;21680;52.400;16.920;2023-08-17T11:59:32;101133.13;;;23.72;85.98
35577;BME280;21680;52.400;16.920;2023-08-17T12:01:59;101130.10;;;23.95;86.12
35577;BME280;21680;52.400;16.920;2023-08-17T12:04:25;101129.44;;;24.11;85.42
35577;BME280;21680;52.400;16.920;2023-08-17T12:06:51;101126.08;;;24.28;85.46
35577;BME280;21680;52.400;16.920;2023-08-17T12:09:17;101127.56;;;24.48;84.49
35577;BME280;21680;52.400;16.920;2023-08-17T12:11:44;101128.61;;;24.48;83.96
35577;BME280;21680;52.400;16.920;2023-08-17T12:14:10;101129.73;;;24.61;83.98
35577;BME280;21680;52.400;16.920;2023-08-17T12:16:45;101122.30;;;24.66;83.02
35577;BME280;21680;52.400;16.920;2023-08-17T12:19:12;101119.27;;;24.62;82.10
35577;BME280;21680;52.400;16.920;2023-08-17T12:21:37;101119.53;;;24.71;82.35
35577;BME280;21680;52.400;16.920;2023-08-17T12:24:04;101116.54;;;24.84;82.15
35577;BME280;21680;52.400;16.920;2023-08-17T12:26:29;101114.89;;;24.92;81.71
35577;BME280;21680;52.400;16.920;2023-08-17T12:28:57;101105.96;;;25.05;81.22
35577;BME280;21680;52.400;16.920;2023-08-17T12:31:23;101101.59;;;25.18;81.00
35577;BME280;21680;52.400;16.920;2023-08-17T12:33:48;101099.60;;;25.31;80.92
35577;BME280;21680;52.400;16.920;2023-08-17T12:36:13;101101.86;;;25.50;80.51